sensor_id;sensor_type;location;lat;lon;timestamp;pressure;altitude;pressure_sealevel;temperature;humidity
6218;BME280;3142;48.206;11.550;2023-11-18T00:00:03;96449.47;;;6.57;84.52
6218;BME280;3142;48.206;11.550;2023-11-18T00:02:36;96458.72;;;6.51;85.08
6218;BME280;3142;48.206;11.550;2023-11-18T00:05:03;96455.63;;;6.48;85.24
6218;BME280;3142;48.206;11.550;2023-11-18T00:07:29;96455.97;;;6.45;84.46
6218;BME280;3142;48.206;11.550;2023-11-18T00:09:57;96457.59;;;6.46;84.84
6218;BME280;3142;48.206;11.550;2023-11-18T00:12:24;96460.19;;;6.46;84.76
6218;BME280;3142;48.206;11.550;2023-11-18T00:14:52;96464.69;;;6.44;84.42
6218;BME280;3142;48.206;11.550;2023-11-18T00:17:18;96460.47;;;6.43;84.90
6218;BME280;3142;48.206;11.550;2023-11-18T00:19:45;96461.44;;;6.42;85.17
6218;BME280;3142;48.206;11.550;2023-11-18T00:22:12;96461.44;;;6.42;84.94
6218;BME280;3142;48.206;11.550;2023-11-18T00:24:39;96463.38;;;6.40;84.97
6218;BME280;3142;48.206;11.550;2023-11-18T00:27:05;96464.66;;;6.36;84.87
6218;BME280;3142;48.206;11.550;2023-11-18T00:29:32;96474.91;;;6.37;85.23
6218;BME280;3142;48.206;11.550;2023-11-18T00:32:00;96464.19;;;6.40;85.15
6218;BME280;3142;48.206;11.550;2023-11-18T00:34:27;96461.59;;;6.40;85.45
6218;BME280;3142;48.206;11.550;2023-11-18T00:36:54;96467.91;;;6.38;84.90
6218;BME280;3142;48.206;11.550;2023-11-18T00:39:22;96463.34;;;6.32;85.02
6218;BME280;3142;48.206;11.550;2023-11-18T00:41:49;96473.59;;;6.33;84.82
6218;BME280;3142;48.206;11.550;2023-11-18T00:44:15;96474.56;;;6.32;85.24
6218;BME280;3142;48.206;11.550;2023-11-18T00:46:51;96471.81;;;6.34;85.01
6218;BME280;3142;48.206;11.550;2023-11-18T00:49:17;96474.56;;;6.32;84.64
6218;BME280;3142;48.206;11.550;2023-11-18T00:51:44;96479.59;;;6.34;84.73
6218;BME280;3142;48.206;11.550;2023-11-18T00:54:10;96475.53;;;6.31;84.97
6218;BME280;3142;48.206;11.550;2023-11-18T00:56:37;96478.94;;;6.32;84.54
6218;BME280;3142;48.206;11.550;2023-11-18T00:59:04;96482.19;;;6.34;84.49
6218;BME280;3142;48.206;11.550;2023-11-18T01:01:31;96485.78;;;6.33;84.32
6218;BME280;3142;48.206;11.550;2023-11-18T01:03:59;96486.75;;;6.32;84.75
6218;BME280;3142;48.206;11.550;2023-11-18T01:06:26;96474.72;;;6.31;84.90
6218;BME280;3142;48.206;11.550;2023-11-18T01:08:52;96477.81;;;6.34;84.71
6218;BME280;3142;48.206;11.550;2023-11-18T01:11:19;96485.31;;;6.37;84.74
6218;BME280;3142;48.206;11.550;2023-11-18T01:13:47;96492.28;;;6.37;83.65
6218;BME280;3142;48.206;11.550;2023-11-18T01:16:14;96489.19;;;6.33;84.08
6218;BME280;3142;48.206;11.550;2023-11-18T01:18:41;96489.47;;;6.30;83.90
6218;BME280;3142;48.206;11.550;2023-11-18T01:21:09;96484.16;;;6.32;84.38
6218;BME280;3142;48.206;11.550;2023-11-18T01:23:36;96488.38;;;6.33;84.37
6218;BME280;3142;48.206;11.550;2023-11-18T01:26:04;96491.63;;;6.35;84.77
6218;BME280;3142;48.206;11.550;2023-11-18T01:28:31;96494.22;;;6.35;83.87
6218;BME280;3142;48.206;11.550;2023-11-18T01:30:58;96500.41;;;6.34;84.50
6218;BME280;3142;48.206;11.550;2023-11-18T01:33:24;96497.63;;;6.35;84.12
6218;BME280;3142;48.206;11.550;2023-11-18T01:35:51;96503.66;;;6.36;83.84
6218;BME280;3142;48.206;11.550;2023-11-18T01:38:20;96500.25;;;6.35;83.50
6218;BME280;3142;48.206;11.550;2023-11-18T01:40:47;96492.44;;;6.35;84.16
6218;BME280;3142;48.206;11.550;2023-11-18T01:43:13;96498.59;;;6.34;84.30
6218;BME280;3142;48.206;11.550;2023-11-18T01:45:41;96500.69;;;6.31;83.76
6218;BME280;3142;48.206;11.550;2023-11-18T01:48:08;96504.94;;;6.32;83.84
6218;BME280;3142;48.206;11.550;2023-11-18T01:50:36;96508.34;;;6.32;83.61
6218;BME280;3142;48.206;11.550;2023-11-18T01:53:03;96502.19;;;6.33;83.97
6218;BME280;3142;48.206;11.550;2023-11-18T01:55:32;96503.97;;;6.33;84.23
6218;BME280;3142;48.206;11.550;2023-11-18T01:57:59;96508.34;;;6.32;83.89
6218;BME280;3142;48.206;11.550;2023-11-18T02:00:33;96503.16;;;6.32;83.80
6218;BME280;3142;48.206;11.550;2023-11-18T02:03:00;96503.97;;;6.33;84.41
6218;BME280;3142;48.206;11.550;2023-11-18T02:05:27;96509.16;;;6.33;83.89
6218;BME280;3142;48.206;11.550;2023-11-18T02:07:53;96511.75;;;6.33;83.83
6218;BME280;3142;48.206;11.550;2023-11-18T02:10:20;96515.31;;;6.32;83.75
6218;BME280;3142;48.206;11.550;2023-11-18T02:12:53;96512.03;;;6.30;83.89
6218;BME280;3142;48.206;11.550;2023-11-18T02:15:22;96509.44;;;6.30;83.74
6218;BME280;3142;48.206;11.550;2023-11-18T02:17:52;96520.00;;;6.28;83.74
6218;BME280;3142;48.206;11.550;2023-11-18T02:20:20;96515.91;;;6.26;83.84
6218;BME280;3142;48.206;11.550;2023-11-18T02:22:47;96523.06;;;6.23;83.71
6218;BME280;3142;48.206;11.550;2023-11-18T02:25:15;96516.38;;;6.21;84.07
6218;BME280;3142;48.206;11.550;2023-11-18T02:27:44;96517.34;;;6.20;83.42
6218;BME280;3142;48.206;11.550;2023-11-18T02:30:12;96526.13;;;6.19;84.61
6218;BME280;3142;48.206;11.550;2023-11-18T02:32:45;96521.44;;;6.22;84.75
6218;BME280;3142;48.206;11.550;2023-11-18T02:35:15;96514.09;;;6.18;84.42
6218;BME280;3142;48.206;11.550;2023-11-18T02:37:47;96521.19;;;6.16;84.32
6218;BME280;3142;48.206;11.550;2023-11-18T02:40:19;96514.09;;;6.18;84.22
6218;BME280;3142;48.206;11.550;2023-11-18T02:42:48;96515.88;;;6.17;84.23
6218;BME280;3142;48.206;11.550;2023-11-18T02:45:18;96515.72;;;6.19;84.34
6218;BME280;3142;48.206;11.550;2023-11-18T02:47:46;96521.75;;;6.19;83.98
6218;BME280;3142;48.206;11.550;2023-11-18T02:50:14;96511.19;;;6.21;83.71
6218;BME280;3142;48.206;11.550;2023-11-18T02:52:41;96519.78;;;6.21;83.71
6218;BME280;3142;48.206;11.550;2023-11-18T02:55:08;96519.13;;;6.19;83.73
6218;BME280;3142;48.206;11.550;2023-11-18T02:57:34;96519.78;;;6.21;84.34
6218;BME280;3142;48.206;11.550;2023-11-18T03:00:04;96512.00;;;6.21;84.59
6218;BME280;3142;48.206;11.550;2023-11-18T03:02:31;96513.47;;;6.24;84.11
6218;BME280;3142;48.206;11.550;2023-11-18T03:04:57;96522.91;;;6.25;83.81
6218;BME280;3142;48.206;11.550;2023-11-18T03:07:24;96518.50;;;6.26;84.05
6218;BME280;3142;48.206;11.550;2023-11-18T03:09:52;96517.69;;;6.25;84.08
6218;BME280;3142;48.206;11.550;2023-11-18T03:12:21;96523.06;;;6.23;84.27
6218;BME280;3142;48.206;11.550;2023-11-18T03:14:48;96527.44;;;6.23;84.24
6218;BME280;3142;48.206;11.550;2023-11-18T03:17:15;96532.63;;;6.23;83.97
6218;BME280;3142;48.206;11.550;2023-11-18T03:19:42;96528.25;;;6.23;84.46
6218;BME280;3142;48.206;11.550;2023-11-18T03:22:08;96534.41;;;6.22;84.01
6218;BME280;3142;48.206;11.550;2023-11-18T03:24:35;96536.69;;;6.26;83.84
6218;BME280;3142;48.206;11.550;2023-11-18T03:27:01;96539.25;;;6.17;84.50
6218;BME280;3142;48.206;11.550;2023-11-18T03:29:28;96539.94;;;6.19;84.60
6218;BME280;3142;48.206;11.550;2023-11-18T03:31:54;96548.88;;;6.25;84.44
6218;BME280;3142;48.206;11.550;2023-11-18T03:34:22;96546.28;;;6.25;84.16
6218;BME280;3142;48.206;11.550;2023-11-18T03:36:48;96547.72;;;6.19;83.76
6218;BME280;3142;48.206;11.550;2023-11-18T03:39:16;96542.69;;;6.18;84.05
6218;BME280;3142;48.206;11.550;2023-11-18T03:41:43;96544.16;;;6.20;83.94
6218;BME280;3142;48.206;11.550;2023-11-18T03:44:10;96546.59;;;6.22;83.92
6218;BME280;3142;48.206;11.550;2023-11-18T03:46:37;96545.63;;;6.23;84.50
6218;BME280;3142;48.206;11.550;2023-11-18T03:49:04;96554.22;;;6.23;83.90
6218;BME280;3142;48.206;11.550;2023-11-18T03:51:32;96561.38;;;6.21;84.29
6218;BME280;3142;48.206;11.550;2023-11-18T03:53:58;96568.19;;;6.22;83.68
6218;BME280;3142;48.206;11.550;2023-11-18T03:56:25;96563.97;;;6.21;83.46
6218;BME280;3142;48.206;11.550;2023-11-18T03:58:52;96569.16;;;6.21;83.64
6218;BME280;3142;48.206;11.550;2023-11-18T04:01:21;96570.47;;;6.26;83.84
6218;BME280;3142;48.206;11.550;2023-11-18T04:03:48;96574.88;;;6.25;83.77
6218;BME280;3142;48.206;11.550;2023-11-18T04:06:15;96581.19;;;6.22;84.68
6218;BME280;3142;48.206;11.550;2023-11-18T04:08:44;96580.88;;;6.26;83.86
6218;BME280;3142;48.206;11.550;2023-11-18T04:11:11;96568.03;;;6.24;83.87
6218;BME280;3142;48.206;11.550;2023-11-18T04:13:38;96567.88;;;6.26;84.07
6218;BME280;3142;48.206;11.550;2023-11-18T04:16:05;96570.16;;;6.29;84.41
6218;BME280;3142;48.206;11.550;2023-11-18T04:18:32;96564.69;;;6.32;84.30
6218;BME280;3142;48.206;11.550;2023-11-18T04:20:58;96563.88;;;6.31;84.18
6218;BME280;3142;48.206;11.550;2023-11-18T04:23:25;96568.53;;;6.28;84.55
6218;BME280;3142;48.206;11.550;2023-11-18T04:25:52;96563.19;;;6.29;83.95
6218;BME280;3142;48.206;11.550;2023-11-18T04:28:19;96566.09;;;6.26;84.48
6218;BME280;3142;48.206;11.550;2023-11-18T04:30:45;96556.81;;;6.23;84.37
6218;BME280;3142;48.206;11.550;2023-11-18T04:33:12;96564.47;;;6.25;84.30
6218;BME280;3142;48.206;11.550;2023-11-18T04:35:39;96567.06;;;6.25;84.22
6218;BME280;3142;48.206;11.550;2023-11-18T04:38:06;96560.09;;;6.26;84.49
6218;BME280;3142;48.206;11.550;2023-11-18T04:40:32;96562.53;;;6.27;84.51
6218;BME280;3142;48.206;11.550;2023-11-18T04:43:00;96557.34;;;6.27;84.49
6218;BME280;3142;48.206;11.550;2023-11-18T04:45:27;96559.63;;;6.30;84.12
6218;BME280;3142;48.206;11.550;2023-11-18T04:47:53;96558.31;;;6.26;84.11
6218;BME280;3142;48.206;11.550;2023-11-18T04:50:20;96558.81;;;6.30;83.93
6218;BME280;3142;48.206;11.550;2023-11-18T04:52:46;96560.09;;;6.26;83.89
6218;BME280;3142;48.206;11.550;2023-11-18T04:55:13;96559.44;;;6.23;83.65
6218;BME280;3142;48.206;11.550;2023-11-18T04:57:39;96554.22;;;6.23;83.88
6218;BME280;3142;48.206;11.550;2023-11-18T05:00:09;96560.25;;;6.24;84.00
6218;BME280;3142;48.206;11.550;2023-11-18T05:02:37;96564.47;;;6.25;83.58
6218;BME280;3142;48.206;11.550;2023-11-18T05:05:04;96554.22;;;6.23;83.67
6218;BME280;3142;48.206;11.550;2023-11-18T05:07:31;96561.88;;;6.25;84.15
6218;BME280;3142;48.206;11.550;2023-11-18T05:09:58;96561.06;;;6.24;83.58
6218;BME280;3142;48.206;11.550;2023-11-18T05:12:24;96558.31;;;6.26;84.17
6218;BME280;3142;48.206;11.550;2023-11-18T05:14:51;96571.28;;;6.26;83.51
6218;BME280;3142;48.206;11.550;2023-11-18T05:17:19;96572.09;;;6.27;83.94
6218;BME280;3142;48.206;11.550;2023-11-18T05:19:45;96572.78;;;6.29;83.42
6218;BME280;3142;48.206;11.550;2023-11-18T05:22:11;96562.53;;;6.27;83.46
6218;BME280;3142;48.206;11.550;2023-11-18T05:24:37;96558.97;;;6.28;83.84
6218;BME280;3142;48.206;11.550;2023-11-18T05:27:04;96544.81;;;6.22;83.91
6218;BME280;3142;48.206;11.550;2023-11-18T05:29:32;96546.75;;;6.20;83.88
6218;BME280;3142;48.206;11.550;2023-11-18T05:31:59;96540.06;;;6.18;83.79
6218;BME280;3142;48.206;11.550;2023-11-18T05:34:27;96547.56;;;6.21;83.60
6218;BME280;3142;48.206;11.550;2023-11-18T05:36:53;96547.41;;;6.22;83.56
6218;BME280;3142;48.206;11.550;2023-11-18T05:39:20;96550.97;;;6.21;83.83
6218;BME280;3142;48.206;11.550;2023-11-18T05:41:49;96544.16;;;6.20;84.25
6218;BME280;3142;48.206;11.550;2023-11-18T05:44:16;96554.69;;;6.19;83.44
6218;BME280;3142;48.206;11.550;2023-11-18T05:46:44;96555.50;;;6.19;83.34
6218;BME280;3142;48.206;11.550;2023-11-18T05:49:12;96557.28;;;6.19;83.74
6218;BME280;3142;48.206;11.550;2023-11-18T05:51:40;96556.47;;;6.18;83.56
6218;BME280;3142;48.206;11.550;2023-11-18T05:54:06;96559.75;;;6.20;83.42
6218;BME280;3142;48.206;11.550;2023-11-18T05:56:33;96555.50;;;6.19;83.63
6218;BME280;3142;48.206;11.550;2023-11-18T05:58:59;96566.63;;;6.12;83.58
6218;BME280;3142;48.206;11.550;2023-11-18T06:01:28;96565.38;;;6.16;84.07
6218;BME280;3142;48.206;11.550;2023-11-18T06:03:55;96579.31;;;6.15;84.00
6218;BME280;3142;48.206;11.550;2023-11-18T06:06:22;96583.84;;;6.13;83.94
6218;BME280;3142;48.206;11.550;2023-11-18T06:08:50;96586.84;;;6.18;84.35
6218;BME280;3142;48.206;11.550;2023-11-18T06:11:18;96585.06;;;6.18;83.85
6218;BME280;3142;48.206;11.550;2023-11-18T06:13:47;96603.25;;;6.18;84.18
6218;BME280;3142;48.206;11.550;2023-11-18T06:16:14;96600.50;;;6.20;84.05
6218;BME280;3142;48.206;11.550;2023-11-18T06:18:42;96603.25;;;6.18;83.86
6218;BME280;3142;48.206;11.550;2023-11-18T06:21:11;96595.59;;;6.17;83.72
6218;BME280;3142;48.206;11.550;2023-11-18T06:23:38;96602.53;;;6.16;83.84
6218;BME280;3142;48.206;11.550;2023-11-18T06:26:06;96599.28;;;6.14;84.31
6218;BME280;3142;48.206;11.550;2023-11-18T06:28:35;96605.16;;;6.16;83.82
6218;BME280;3142;48.206;11.550;2023-11-18T06:31:02;96592.31;;;6.15;84.52
6218;BME280;3142;48.206;11.550;2023-11-18T06:33:29;96603.25;;;6.18;84.48
6218;BME280;3142;48.206;11.550;2023-11-18T06:35:55;96602.28;;;6.19;84.54
6218;BME280;3142;48.206;11.550;2023-11-18T06:38:22;96603.91;;;6.20;84.52
6218;BME280;3142;48.206;11.550;2023-11-18T06:40:49;96601.97;;;6.22;84.03
6218;BME280;3142;48.206;11.550;2023-11-18T06:43:19;96600.91;;;6.15;84.68
6218;BME280;3142;48.206;11.550;2023-11-18T06:45:45;96599.84;;;6.18;85.11
6218;BME280;3142;48.206;11.550;2023-11-18T06:48:14;96602.28;;;6.19;84.71
6218;BME280;3142;48.206;11.550;2023-11-18T06:50:43;96596.09;;;6.20;84.75
6218;BME280;3142;48.206;11.550;2023-11-18T06:53:10;96594.31;;;6.21;84.83
6218;BME280;3142;48.206;11.550;2023-11-18T06:55:37;96598.41;;;6.23;84.89
6218;BME280;3142;48.206;11.550;2023-11-18T06:58:03;96599.88;;;6.26;85.20
6218;BME280;3142;48.206;11.550;2023-11-18T07:00:31;96595.00;;;6.23;85.04
6218;BME280;3142;48.206;11.550;2023-11-18T07:02:57;96608.34;;;6.28;85.25
6218;BME280;3142;48.206;11.550;2023-11-18T07:05:25;96608.34;;;6.28;85.06
6218;BME280;3142;48.206;11.550;2023-11-18T07:07:51;96602.97;;;6.30;84.58
6218;BME280;3142;48.206;11.550;2023-11-18T07:10:18;96607.25;;;6.31;84.95
6218;BME280;3142;48.206;11.550;2023-11-18T07:12:46;96599.44;;;6.31;84.96
6218;BME280;3142;48.206;11.550;2023-11-18T07:15:13;96602.84;;;6.31;84.88
6218;BME280;3142;48.206;11.550;2023-11-18T07:17:42;96612.44;;;6.31;84.48
6218;BME280;3142;48.206;11.550;2023-11-18T07:20:09;96610.34;;;6.34;84.74
6218;BME280;3142;48.206;11.550;2023-11-18T07:22:39;96608.41;;;6.36;84.71
6218;BME280;3142;48.206;11.550;2023-11-18T07:25:06;96610.19;;;6.36;84.34
6218;BME280;3142;48.206;11.550;2023-11-18T07:27:35;96609.22;;;6.37;83.98
6218;BME280;3142;48.206;11.550;2023-11-18T07:30:01;96605.34;;;6.41;84.17
6218;BME280;3142;48.206;11.550;2023-11-18T07:32:28;96607.78;;;6.42;84.57
6218;BME280;3142;48.206;11.550;2023-11-18T07:34:56;96608.31;;;6.46;83.85
6218;BME280;3142;48.206;11.550;2023-11-18T07:37:23;96614.19;;;6.48;84.00
6218;BME280;3142;48.206;11.550;2023-11-18T07:39:49;96613.72;;;6.52;83.45
6218;BME280;3142;48.206;11.550;2023-11-18T07:42:16;96613.41;;;6.56;83.32
6218;BME280;3142;48.206;11.550;2023-11-18T07:44:43;96625.44;;;6.57;84.22
6218;BME280;3142;48.206;11.550;2023-11-18T07:47:09;96621.59;;;6.61;83.08
6218;BME280;3142;48.206;11.550;2023-11-18T07:49:36;96624.19;;;6.61;83.82
6218;BME280;3142;48.206;11.550;2023-11-18T07:52:05;96630.50;;;6.58;83.68
6218;BME280;3142;48.206;11.550;2023-11-18T07:54:32;96625.81;;;6.62;83.30
6218;BME280;3142;48.206;11.550;2023-11-18T07:56:58;96625.00;;;6.61;83.63
6218;BME280;3142;48.206;11.550;2023-11-18T07:59:25;96617.41;;;6.68;83.85
6218;BME280;3142;48.206;11.550;2023-11-18T08:01:52;96619.19;;;6.67;84.07
6218;BME280;3142;48.206;11.550;2023-11-18T08:04:19;96615.53;;;6.78;83.32
6218;BME280;3142;48.206;11.550;2023-11-18T08:06:47;96615.88;;;6.83;82.60
6218;BME280;3142;48.206;11.550;2023-11-18T08:09:14;96612.00;;;6.87;82.66
6218;BME280;3142;48.206;11.550;2023-11-18T08:11:47;96617.72;;;6.91;82.53
6218;BME280;3142;48.206;11.550;2023-11-18T08:14:14;96620.81;;;6.94;82.72
6218;BME280;3142;48.206;11.550;2023-11-18T08:16:41;96620.31;;;6.91;82.51
6218;BME280;3142;48.206;11.550;2023-11-18T08:19:08;96615.28;;;6.97;82.12
6218;BME280;3142;48.206;11.550;2023-11-18T08:21:34;96617.91;;;6.97;82.37
6218;BME280;3142;48.206;11.550;2023-11-18T08:24:03;96617.41;;;6.94;82.47
6218;BME280;3142;48.206;11.550;2023-11-18T08:26:31;96618.44;;;7.01;82.78
6218;BME280;3142;48.206;11.550;2023-11-18T08:28:58;96619.44;;;7.08;82.73
6218;BME280;3142;48.206;11.550;2023-11-18T08:31:26;96630.19;;;7.13;81.66
6218;BME280;3142;48.206;11.550;2023-11-18T08:33:52;96638.81;;;7.13;81.01
6218;BME280;3142;48.206;11.550;2023-11-18T08:36:19;96633.31;;;7.17;81.31
6218;BME280;3142;48.206;11.550;2023-11-18T08:38:47;96646.81;;;7.20;80.38
6218;BME280;3142;48.206;11.550;2023-11-18T08:41:14;96646.19;;;7.26;80.77
6218;BME280;3142;48.206;11.550;2023-11-18T08:43:42;96645.72;;;7.31;80.65
6218;BME280;3142;48.206;11.550;2023-11-18T08:46:12;96635.00;;;7.34;79.65
6218;BME280;3142;48.206;11.550;2023-11-18T08:48:39;96628.66;;;7.36;80.08
6218;BME280;3142;48.206;11.550;2023-11-18T08:51:06;96630.66;;;7.42;79.22
6218;BME280;3142;48.206;11.550;2023-11-18T08:53:33;96622.84;;;7.42;80.13
6218;BME280;3142;48.206;11.550;2023-11-18T08:56:07;96621.56;;;7.47;79.96
6218;BME280;3142;48.206;11.550;2023-11-18T08:58:39;96619.28;;;7.52;78.76
6218;BME280;3142;48.206;11.550;2023-11-18T09:01:07;96626.28;;;7.51;78.19
6218;BME280;3142;48.206;11.550;2023-11-18T09:03:39;96621.06;;;7.51;78.88
6218;BME280;3142;48.206;11.550;2023-11-18T09:06:09;96619.28;;;7.52;79.09
6218;BME280;3142;48.206;11.550;2023-11-18T09:08:43;96607.59;;;7.56;79.27
6218;BME280;3142;48.206;11.550;2023-11-18T09:11:11;96605.47;;;7.59;78.92
6218;BME280;3142;48.206;11.550;2023-11-18T09:13:41;96612.16;;;7.62;79.60
6218;BME280;3142;48.206;11.550;2023-11-18T09:16:10;96619.31;;;7.60;78.36
6218;BME280;3142;48.206;11.550;2023-11-18T09:18:37;96615.75;;;7.61;78.13
6218;BME280;3142;48.206;11.550;2023-11-18T09:21:06;96616.88;;;7.66;78.51
6218;BME280;3142;48.206;11.550;2023-11-18T09:23:37;96611.38;;;7.78;78.21
6218;BME280;3142;48.206;11.550;2023-11-18T09:26:05;96614.34;;;7.91;77.09
6218;BME280;3142;48.206;11.550;2023-11-18T09:28:33;96617.63;;;8.01;76.80
6218;BME280;3142;48.206;11.550;2023-11-18T09:31:00;96616.81;;;8.09;77.30
6218;BME280;3142;48.206;11.550;2023-11-18T09:33:30;96619.44;;;8.09;75.68
6218;BME280;3142;48.206;11.550;2023-11-18T09:35:59;96620.25;;;8.09;76.09
6218;BME280;3142;48.206;11.550;2023-11-18T09:38:26;96619.28;;;8.10;75.84
6218;BME280;3142;48.206;11.550;2023-11-18T09:40:56;96623.00;;;8.16;76.26
6218;BME280;3142;48.206;11.550;2023-11-18T09:43:28;96623.66;;;8.18;75.63
6218;BME280;3142;48.206;11.550;2023-11-18T09:46:03;96618.81;;;8.39;75.68
6218;BME280;3142;48.206;11.550;2023-11-18T09:48:34;96615.09;;;8.50;73.90
6218;BME280;3142;48.206;11.550;2023-11-18T09:51:06;96615.69;;;8.60;74.23
6218;BME280;3142;48.206;11.550;2023-11-18T09:53:37;96612.44;;;8.66;72.65
6218;BME280;3142;48.206;11.550;2023-11-18T09:56:07;96609.16;;;8.72;72.56
6218;BME280;3142;48.206;11.550;2023-11-18T09:58:49;96622.69;;;8.84;72.08
6218;BME280;3142;48.206;11.550;2023-11-18T10:01:21;96627.09;;;8.92;72.14
6218;BME280;3142;48.206;11.550;2023-11-18T10:03:49;96626.41;;;8.98;71.97
6218;BME280;3142;48.206;11.550;2023-11-18T10:06:17;96608.84;;;9.70;70.54
6218;BME280;3142;48.206;11.550;2023-11-18T10:08:44;96607.28;;;10.37;69.24
6218;BME280;3142;48.206;11.550;2023-11-18T10:11:12;96598.19;;;10.86;67.55
6218;BME280;3142;48.206;11.550;2023-11-18T10:13:39;96590.59;;;10.91;66.00
6218;BME280;3142;48.206;11.550;2023-11-18T10:16:07;96593.69;;;10.94;65.11
6218;BME280;3142;48.206;11.550;2023-11-18T10:18:34;96591.44;;;11.21;64.21
6218;BME280;3142;48.206;11.550;2023-11-18T10:21:03;96585.31;;;11.14;64.32
6218;BME280;3142;48.206;11.550;2023-11-18T10:23:33;96583.50;;;11.00;64.87
6218;BME280;3142;48.206;11.550;2023-11-18T10:26:03;96574.97;;;11.42;63.59
6218;BME280;3142;48.206;11.550;2023-11-18T10:28:31;96575.81;;;11.27;62.96
6218;BME280;3142;48.206;11.550;2023-11-18T10:30:59;96579.16;;;11.07;62.98
6218;BME280;3142;48.206;11.550;2023-11-18T10:33:29;96570.19;;;11.31;62.42
6218;BME280;3142;48.206;11.550;2023-11-18T10:35:57;96568.66;;;11.36;62.10
6218;BME280;3142;48.206;11.550;2023-11-18T10:38:25;96563.81;;;11.69;61.15
6218;BME280;3142;48.206;11.550;2023-11-18T10:40:55;96560.13;;;12.00;60.55
6218;BME280;3142;48.206;11.550;2023-11-18T10:43:23;96564.56;;;12.21;58.22
6218;BME280;3142;48.206;11.550;2023-11-18T10:45:51;96558.75;;;12.25;57.84
6218;BME280;3142;48.206;11.550;2023-11-18T10:48:18;96565.16;;;12.01;59.19
6218;BME280;3142;48.206;11.550;2023-11-18T10:50:47;96577.91;;;11.83;59.05
6218;BME280;3142;48.206;11.550;2023-11-18T10:53:16;96564.47;;;11.56;59.46
6218;BME280;3142;48.206;11.550;2023-11-18T10:55:44;96571.22;;;11.15;60.35
6218;BME280;3142;48.206;11.550;2023-11-18T10:58:11;96576.63;;;10.84;61.31
6218;BME280;3142;48.206;11.550;2023-11-18T11:00:49;96578.84;;;10.57;61.33
6218;BME280;3142;48.206;11.550;2023-11-18T11:03:16;96582.94;;;10.37;61.93
6218;BME280;3142;48.206;11.550;2023-11-18T11:05:44;96581.59;;;10.18;62.17
6218;BME280;3142;48.206;11.550;2023-11-18T11:08:13;96578.34;;;10.16;62.56
6218;BME280;3142;48.206;11.550;2023-11-18T11:10:41;96580.38;;;10.06;63.03
6218;BME280;3142;48.206;11.550;2023-11-18T11:13:10;96569.03;;;9.91;63.11
6218;BME280;3142;48.206;11.550;2023-11-18T11:15:40;96572.72;;;10.04;62.48
6218;BME280;3142;48.206;11.550;2023-11-18T11:18:11;96573.28;;;9.92;63.41
6218;BME280;3142;48.206;11.550;2023-11-18T11:20:42;96577.09;;;9.81;63.15
6218;BME280;3142;48.206;11.550;2023-11-18T11:23:18;96582.28;;;9.89;62.39
6218;BME280;3142;48.206;11.550;2023-11-18T11:25:57;96572.81;;;9.88;62.91
6218;BME280;3142;48.206;11.550;2023-11-18T11:28:40;96589.69;;;10.00;63.04
6218;BME280;3142;48.206;11.550;2023-11-18T11:31:12;96587.59;;;10.27;62.39
6218;BME280;3142;48.206;11.550;2023-11-18T11:33:49;96589.72;;;10.46;62.20
6218;BME280;3142;48.206;11.550;2023-11-18T11:36:21;96595.56;;;10.71;61.08
6218;BME280;3142;48.206;11.550;2023-11-18T11:38:50;96594.66;;;10.79;58.65
6218;BME280;3142;48.206;11.550;2023-11-18T11:41:21;96587.59;;;10.64;58.05
6218;BME280;3142;48.206;11.550;2023-11-18T11:43:53;96583.59;;;10.54;58.11
6218;BME280;3142;48.206;11.550;2023-11-18T11:46:25;96580.56;;;10.65;57.32
6218;BME280;3142;48.206;11.550;2023-11-18T11:48:58;96570.09;;;10.80;56.88
6218;BME280;3142;48.206;11.550;2023-11-18T11:51:38;96566.50;;;10.95;56.79
6218;BME280;3142;48.206;11.550;2023-11-18T11:54:11;96558.94;;;10.86;55.80
6218;BME280;3142;48.206;11.550;2023-11-18T11:56:42;96557.13;;;10.72;56.60
6218;BME280;3142;48.206;11.550;2023-11-18T11:59:10;96561.59;;;10.63;56.76
6218;BME280;3142;48.206;11.550;2023-11-18T12:01:37;96558.34;;;10.61;57.60
6218;BME280;3142;48.206;11.550;2023-11-18T12:04:08;96550.88;;;10.58;57.56
6218;BME280;3142;48.206;11.550;2023-11-18T12:06:41;96543.66;;;10.60;58.16
6218;BME280;3142;48.206;11.550;2023-11-18T12:09:09;96538.59;;;10.58;57.88
6218;BME280;3142;48.206;11.550;2023-11-18T12:11:37;96541.91;;;10.52;57.74
6218;BME280;3142;48.206;11.550;2023-11-18T12:14:08;96539.47;;;10.51;58.54
6218;BME280;3142;48.206;11.550;2023-11-18T12:16:59;96552.19;;;10.54;58.37
6218;BME280;3142;48.206;11.550;2023-11-18T12:19:33;96553.47;;;10.43;57.67
6218;BME280;3142;48.206;11.550;2023-11-18T12:22:10;96549.66;;;10.31;57.97
6218;BME280;3142;48.206;11.550;2023-11-18T12:24:44;96542.31;;;10.26;58.05
6218;BME280;3142;48.206;11.550;2023-11-18T12:27:12;96549.34;;;10.26;58.29
6218;BME280;3142;48.206;11.550;2023-11-18T12:29:41;96542.31;;;10.26;58.46
6218;BME280;3142;48.206;11.550;2023-11-18T12:32:09;96528.25;;;10.27;58.46
6218;BME280;3142;48.206;11.550;2023-11-18T12:34:50;96517.28;;;10.32;58.29
6218;BME280;3142;48.206;11.550;2023-11-18T12:37:33;96518.59;;;10.28;58.41
6218;BME280;3142;48.206;11.550;2023-11-18T12:40:45;96515.34;;;10.26;56.50
6218;BME280;3142;48.206;11.550;2023-11-18T12:43:16;96504.44;;;10.22;55.95
6218;BME280;3142;48.206;11.550;2023-11-18T12:45:58;96501.00;;;10.22;56.48
6218;BME280;3142;48.206;11.550;2023-11-18T12:48:34;96493.50;;;10.19;56.15
6218;BME280;3142;48.206;11.550;2023-11-18T12:51:05;96497.59;;;10.21;56.52
6218;BME280;3142;48.206;11.550;2023-11-18T12:53:35;96492.06;;;10.16;56.86
6218;BME280;3142;48.206;11.550;2023-11-18T12:56:02;96491.88;;;10.18;56.83
6218;BME280;3142;48.206;11.550;2023-11-18T12:58:30;96483.72;;;10.13;57.18
6218;BME280;3142;48.206;11.550;2023-11-18T13:00:59;96481.03;;;10.06;57.07
6218;BME280;3142;48.206;11.550;2023-11-18T13:03:25;96491.75;;;10.11;57.33
6218;BME280;3142;48.206;11.550;2023-11-18T13:05:53;96496.16;;;10.10;57.18
6218;BME280;3142;48.206;11.550;2023-11-18T13:08:19;96487.06;;;10.06;57.84
6218;BME280;3142;48.206;11.550;2023-11-18T13:10:47;96485.34;;;10.14;58.06
6218;BME280;3142;48.206;11.550;2023-11-18T13:13:15;96475.66;;;10.22;58.24
6218;BME280;3142;48.206;11.550;2023-11-18T13:15:44;96477.63;;;10.20;58.59
6218;BME280;3142;48.206;11.550;2023-11-18T13:18:14;96473.56;;;10.18;58.49
6218;BME280;3142;48.206;11.550;2023-11-18T13:20:40;96465.34;;;10.06;58.26
6218;BME280;3142;48.206;11.550;2023-11-18T13:23:09;96466.84;;;10.00;58.96
6218;BME280;3142;48.206;11.550;2023-11-18T13:25:37;96469.00;;;9.97;58.96